Time;durP1;ratioP1;P1;durP2;ratioP2;P2;SDS_P1;SDS_P2;PMS_P1;PMS_P2;Temp;Humidity;BMP_temperature;BMP_pressure;BME280_temperature;BME280_humidity;BME280_pressure;Samples;Min_cycle;Max_cycle;Signal;HPM_P1;HPM_P2
2022/04/13 00:01:11;;;;;;;;;;;10.30;78.10;;;;;;5073002;28;19908;-89
2022/04/13 00:03:37;;;;;;;;;;;10.20;77.90;;;;;;5072833;28;19912;-89
2022/04/13 00:06:02;;;;;;;;;;;10.40;77.40;;;;;;5072924;28;19915;-89
2022/04/13 00:08:28;;;;;;;;;;;10.40;77.50;;;;;;5073059;28;19995;-89
2022/04/13 00:10:53;;;;;;;;;;;10.40;77.60;;;;;;5073121;28;20413;-89
2022/04/13 00:13:19;;;;;;;;;;;10.40;77.30;;;;;;5072905;28;20355;-89
2022/04/13 00:15:44;;;;;;;;;;;10.30;77.50;;;;;;5072800;28;20377;-90
2022/04/13 00:18:10;;;;;;;;;;;10.10;78.10;;;;;;5072785;28;19909;-90
2022/04/13 00:20:36;;;;;;;;;;;9.80;80.30;;;;;;5072733;28;19908;-89
2022/04/13 00:23:01;;;;;;;;;;;9.60;81.30;;;;;;5072979;28;19909;-89
2022/04/13 00:25:28;;;;;;;;;;;9.40;81.90;;;;;;5072375;28;20362;-89
2022/04/13 00:27:54;;;;;;;;;;;9.30;82.60;;;;;;5072858;28;19912;-90
2022/04/13 00:30:19;;;;;;;;;;;9.20;82.80;;;;;;5073083;28;19915;-89
2022/04/13 00:32:45;;;;;;;;;;;9.30;84.10;;;;;;5076313;28;20318;-89
2022/04/13 00:35:10;;;;;;;;;;;9.30;84.90;;;;;;5076454;28;19916;-89
2022/04/13 00:37:37;;;;;;;;;;;9.40;84.60;;;;;;5076299;28;19915;-90
2022/04/13 00:40:04;;;;;;;;;;;9.50;84.30;;;;;;5076262;28;20369;-89
2022/04/13 00:42:30;;;;;;;;;;;9.80;83.70;;;;;;5076532;28;19910;-89
2022/04/13 00:44:55;;;;;;;;;;;9.90;82.70;;;;;;5076012;28;19928;-89
2022/04/13 00:47:21;;;;;;;;;;;10.10;81.90;;;;;;5076191;28;19912;-90
2022/04/13 00:49:47;;;;;;;;;;;10.10;81.50;;;;;;5076092;28;19996;-89
2022/04/13 00:52:13;;;;;;;;;;;10.20;81.20;;;;;;5076064;28;20286;-88
2022/04/13 00:54:41;;;;;;;;;;;10.20;80.80;;;;;;5076203;28;20162;-89
2022/04/13 00:57:08;;;;;;;;;;;10.20;80.10;;;;;;5075565;28;19913;-88
2022/04/13 00:59:35;;;;;;;;;;;10.30;80.00;;;;;;5076002;28;19909;-90
2022/04/13 01:02:01;;;;;;;;;;;10.20;79.80;;;;;;5075965;28;19928;-90
2022/04/13 01:04:29;;;;;;;;;;;10.30;79.70;;;;;;5075793;28;20396;-89
2022/04/13 01:06:54;;;;;;;;;;;10.20;79.80;;;;;;5075873;28;19973;-89
2022/04/13 01:09:20;;;;;;;;;;;10.30;79.70;;;;;;5075970;28;19912;-89
2022/04/13 01:11:46;;;;;;;;;;;10.20;79.60;;;;;;5075970;28;20418;-89
2022/04/13 01:14:11;;;;;;;;;;;10.20;79.70;;;;;;5074488;28;19908;-89
2022/04/13 01:16:40;;;;;;;;;;;10.20;80.00;;;;;;5075851;28;20362;-89
2022/04/13 01:19:07;;;;;;;;;;;10.20;80.10;;;;;;5075935;28;19954;-89
2022/04/13 01:21:44;;;;;;;;;;;10.00;80.20;;;;;;5075104;28;19950;-90
2022/04/13 01:24:10;;;;;;;;;;;10.00;79.60;;;;;;5075471;28;20385;-89
2022/04/13 01:26:35;;;;;;;;;;;9.80;79.10;;;;;;5075304;28;19944;-89
2022/04/13 01:29:01;;;;;;;;;;;9.40;79.90;;;;;;5075429;28;20380;-89
2022/04/13 01:31:27;;;;;;;;;;;9.20;81.10;;;;;;5075297;28;19956;-89
2022/04/13 01:33:52;;;;;;;;;;;9.10;82.00;;;;;;5075322;28;19909;-89
2022/04/13 01:36:19;;;;;;;;;;;9.20;82.60;;;;;;5075448;28;19954;-88
2022/04/13 01:38:44;;;;;;;;;;;9.40;82.30;;;;;;5075382;28;19916;-90
2022/04/13 01:41:10;;;;;;;;;;;9.50;81.70;;;;;;5075054;28;19978;-88
2022/04/13 01:43:35;;;;;;;;;;;9.70;81.10;;;;;;5074714;28;19939;-89
2022/04/13 01:46:01;;;;;;;;;;;9.80;80.90;;;;;;5075125;28;19948;-89
2022/04/13 01:48:29;;;;;;;;;;;9.80;80.60;;;;;;5075009;28;19908;-88
2022/04/13 01:50:54;;;;;;;;;;;9.70;80.30;;;;;;5075100;28;20003;-88
2022/04/13 01:53:20;;;;;;;;;;;9.50;80.60;;;;;;5075272;28;19947;-90
2022/04/13 01:55:47;;;;;;;;;;;9.40;81.20;;;;;;5074809;28;19909;-90
2022/04/13 01:58:12;;;;;;;;;;;9.50;81.60;;;;;;5075107;28;19920;-89
2022/04/13 02:00:38;;;;;;;;;;;9.50;81.60;;;;;;5074849;28;20282;-90
2022/04/13 02:03:03;;;;;;;;;;;9.50;82.00;;;;;;5074724;28;20373;-89
2022/04/13 02:05:29;;;;;;;;;;;9.60;81.70;;;;;;5074691;28;19912;-89
2022/04/13 02:07:54;;;;;;;;;;;9.60;81.50;;;;;;5074797;28;19912;-89
2022/04/13 02:10:20;;;;;;;;;;;9.60;81.30;;;;;;5074533;28;20373;-89
2022/04/13 02:12:47;;;;;;;;;;;9.50;81.40;;;;;;5074603;28;19909;-89
2022/04/13 02:15:13;;;;;;;;;;;9.40;81.90;;;;;;5074638;28;19932;-89
2022/04/13 02:17:39;;;;;;;;;;;9.30;82.50;;;;;;5074160;28;20306;-89
2022/04/13 02:20:05;;;;;;;;;;;9.30;83.30;;;;;;5074461;28;19916;-89
2022/04/13 02:22:31;;;;;;;;;;;9.30;83.70;;;;;;5074306;28;19908;-89
2022/04/13 02:25:00;;;;;;;;;;;9.40;83.80;;;;;;5074239;28;20254;-89
2022/04/13 02:27:26;;;;;;;;;;;9.40;82.90;;;;;;5074335;28;19915;-89
2022/04/13 02:29:51;;;;;;;;;;;9.40;82.00;;;;;;5074296;28;19999;-89
2022/04/13 02:32:17;;;;;;;;;;;9.40;81.50;;;;;;5074080;28;19908;-89
2022/04/13 02:34:44;;;;;;;;;;;9.30;81.90;;;;;;5074199;28;20332;-89
2022/04/13 02:37:10;;;;;;;;;;;9.00;82.00;;;;;;5074087;28;20000;-89
2022/04/13 02:39:36;;;;;;;;;;;8.80;82.60;;;;;;5074255;28;20003;-89
2022/04/13 02:42:01;;;;;;;;;;;8.70;84.00;;;;;;5074071;28;20271;-89
2022/04/13 02:44:27;;;;;;;;;;;8.60;85.40;;;;;;5073799;28;20007;-89
2022/04/13 02:46:52;;;;;;;;;;;8.50;86.30;;;;;;5073638;28;19947;-90
2022/04/13 02:49:18;;;;;;;;;;;8.60;86.20;;;;;;5073928;28;19908;-89
2022/04/13 02:51:43;;;;;;;;;;;8.70;86.20;;;;;;5073833;28;19975;-89
2022/04/13 02:54:09;;;;;;;;;;;8.70;86.40;;;;;;5073356;28;19916;-90
2022/04/13 02:56:35;;;;;;;;;;;8.80;86.40;;;;;;5073766;28;19912;-90
2022/04/13 02:59:01;;;;;;;;;;;8.80;86.40;;;;;;5073980;28;20080;-89
2022/04/13 03:01:26;;;;;;;;;;;8.80;86.40;;;;;;5073778;28;19965;-90
2022/04/13 03:03:52;;;;;;;;;;;8.80;86.20;;;;;;5073562;28;20285;-89
2022/04/13 03:06:17;;;;;;;;;;;8.80;86.10;;;;;;5073632;28;19909;-89
2022/04/13 03:08:45;;;;;;;;;;;8.80;86.00;;;;;;5073543;28;20007;-90
2022/04/13 03:11:10;;;;;;;;;;;8.80;85.50;;;;;;5106067;28;19973;-89
2022/04/13 03:13:36;;;;;;;;;;;8.70;85.00;;;;;;5073553;28;20365;-89
2022/04/13 03:16:02;;;;;;;;;;;8.60;84.00;;;;;;5106030;28;19908;-89
2022/04/13 03:18:27;;;;;;;;;;;8.70;83.90;;;;;;5073197;28;20388;-89
2022/04/13 03:20:53;;;;;;;;;;;8.70;83.70;;;;;;5073363;28;20278;-90
2022/04/13 03:23:18;;;;;;;;;;;8.70;84.20;;;;;;5072235;28;19909;-89
2022/04/13 03:25:44;;;;;;;;;;;8.70;84.50;;;;;;5073250;28;19912;-90
2022/04/13 03:28:09;;;;;;;;;;;8.80;84.30;;;;;;5073325;28;19908;-89
2022/04/13 03:30:35;;;;;;;;;;;8.80;84.20;;;;;;5073300;28;19912;-89
2022/04/13 03:33:00;;;;;;;;;;;8.70;83.80;;;;;;5073242;28;19909;-89
2022/04/13 03:35:26;;;;;;;;;;;8.70;83.60;;;;;;5073262;28;19909;-89
2022/04/13 03:37:51;;;;;;;;;;;8.60;83.70;;;;;;5073277;28;19909;-89
2022/04/13 03:40:17;;;;;;;;;;;8.60;85.30;;;;;;5073221;28;19909;-90
2022/04/13 03:42:43;;;;;;;;;;;8.60;85.90;;;;;;5073193;28;19908;-89
2022/04/13 03:45:10;;;;;;;;;;;8.60;85.90;;;;;;5097755;22;19930;-89
2022/04/13 03:47:35;;;;;;;;;;;8.40;85.00;;;;;;5093052;28;19923;-90
2022/04/13 03:50:01;;;;;;;;;;;8.20;84.30;;;;;;5093326;28;19908;-90
2022/04/13 03:52:27;;;;;;;;;;;8.00;84.30;;;;;;5093578;28;19908;-89
2022/04/13 03:54:52;;;;;;;;;;;7.90;85.10;;;;;;5075152;28;20003;-89
2022/04/13 03:57:18;;;;;;;;;;;8.00;85.50;;;;;;5093558;28;19999;-89
2022/04/13 03:59:44;;;;;;;;;;;8.10;85.60;;;;;;5093236;28;19994;-89
2022/04/13 04:02:09;;;;;;;;;;;8.20;85.70;;;;;;5093211;28;19908;-89
2022/04/13 04:04:35;;;;;;;;;;;8.30;86.20;;;;;;5093111;28;19926;-89
2022/04/13 04:07:00;;;;;;;;;;;8.30;87.10;;;;;;5096597;28;20022;-89
2022/04/13 04:09:26;;;;;;;;;;;8.20;86.90;;;;;;5097409;28;19933;-88
2022/04/13 04:11:51;;;;;;;;;;;8.10;86.90;;;;;;5097201;28;20358;-89
2022/04/13 04:14:17;;;;;;;;;;;8.00;86.90;;;;;;5097117;28;19915;-89
2022/04/13 04:16:42;;;;;;;;;;;8.00;87.30;;;;;;5096913;28;19912;-89
2022/04/13 04:19:08;;;;;;;;;;;8.00;87.40;;;;;;5096833;28;19908;-88
2022/04/13 04:21:34;;;;;;;;;;;8.10;87.90;;;;;;5096446;28;20428;-89
2022/04/13 04:24:00;;;;;;;;;;;8.00;88.30;;;;;;5096733;28;19912;-88
2022/04/13 04:26:25;;;;;;;;;;;8.10;88.60;;;;;;5095725;28;19909;-88
2022/04/13 04:28:51;;;;;;;;;;;8.20;89.40;;;;;;5096405;28;19985;-89
2022/04/13 04:31:49;;;;;;;;;;;8.30;89.50;;;;;;5095534;28;19934;-89
2022/04/13 04:34:04;;;;;;;;;;;8.40;89.40;;;;;;5096410;28;20425;-89
2022/04/13 04:36:30;;;;;;;;;;;8.20;87.50;;;;;;5096660;28;19954;-89
2022/04/13 04:38:55;;;;;;;;;;;7.90;87.30;;;;;;5096669;28;19957;-88
2022/04/13 04:41:21;;;;;;;;;;;7.90;88.20;;;;;;5096583;28;19912;-88
2022/04/13 04:43:46;;;;;;;;;;;7.80;88.10;;;;;;5096337;28;20374;-89
2022/04/13 04:46:12;;;;;;;;;;;7.70;88.00;;;;;;5096247;28;19934;-88
2022/04/13 04:48:40;;;;;;;;;;;7.50;88.30;;;;;;5096684;28;19908;-88
2022/04/13 04:51:06;;;;;;;;;;;7.50;88.90;;;;;;5096428;28;20378;-88
2022/04/13 04:53:31;;;;;;;;;;;7.60;89.30;;;;;;5096348;28;19924;-88
2022/04/13 04:55:57;;;;;;;;;;;7.60;89.60;;;;;;5096242;28;19970;-88
2022/04/13 04:58:22;;;;;;;;;;;7.50;89.80;;;;;;5096209;28;19915;-88
2022/04/13 05:00:48;;;;;;;;;;;7.60;90.30;;;;;;5096221;28;19915;-88
2022/04/13 05:03:13;;;;;;;;;;;7.70;90.20;;;;;;5096217;28;20300;-88
2022/04/13 05:05:41;;;;;;;;;;;7.60;89.70;;;;;;5096073;28;19920;-88
2022/04/13 05:08:07;;;;;;;;;;;7.50;89.70;;;;;;5095996;28;19910;-88
2022/04/13 05:10:33;;;;;;;;;;;7.50;90.00;;;;;;5095846;28;19934;-88
2022/04/13 05:12:58;;;;;;;;;;;7.50;90.40;;;;;;5095970;28;19908;-88
2022/04/13 05:15:24;;;;;;;;;;;7.50;90.70;;;;;;5094561;28;19995;-88
2022/04/13 05:17:50;;;;;;;;;;;7.60;90.90;;;;;;5094926;28;19912;-88
2022/04/13 05:20:15;;;;;;;;;;;7.70;91.10;;;;;;5095795;28;19951;-88
2022/04/13 05:22:41;;;;;;;;;;;7.80;91.20;;;;;;5095733;28;19961;-88
2022/04/13 05:25:08;;;;;;;;;;;7.90;91.20;;;;;;5094294;28;19920;-87
2022/04/13 05:27:34;;;;;;;;;;;7.90;91.00;;;;;;5095519;28;19908;-88
2022/04/13 05:30:00;;;;;;;;;;;8.00;91.10;;;;;;5094150;28;19956;-88
2022/04/13 05:32:25;;;;;;;;;;;8.10;90.90;;;;;;5095001;28;19916;-88
2022/04/13 05:34:56;;;;;;;;;;;8.30;90.50;;;;;;5093807;28;20426;-88
2022/04/13 05:37:22;;;;;;;;;;;8.40;90.20;;;;;;5094952;28;19935;-88
2022/04/13 05:39:48;;;;;;;;;;;8.50;89.90;;;;;;5095373;28;20277;-87
2022/04/13 05:42:13;;;;;;;;;;;8.60;89.50;;;;;;5095304;28;20158;-88
2022/04/13 05:44:39;;;;;;;;;;;8.60;89.30;;;;;;5095066;28;20285;-88
2022/04/13 05:47:04;;;;;;;;;;;8.80;89.10;;;;;;5093956;28;20019;-88
2022/04/13 05:49:30;;;;;;;;;;;8.90;88.80;;;;;;5094965;28;19908;-88
2022/04/13 05:51:55;;;;;;;;;;;9.00;88.60;;;;;;5094991;28;19916;-88
2022/04/13 05:54:21;;;;;;;;;;;9.20;87.80;;;;;;5095113;28;20263;-87
2022/04/13 05:56:47;;;;;;;;;;;9.30;87.10;;;;;;5093989;28;19913;-87
2022/04/13 05:59:12;;;;;;;;;;;9.40;86.90;;;;;;5092599;28;19948;-87
2022/04/13 06:01:38;;;;;;;;;;;9.50;86.40;;;;;;5106578;28;19916;-87
2022/04/13 06:04:03;;;;;;;;;;;9.60;86.00;;;;;;5094853;28;19958;-87
2022/04/13 06:06:30;;;;;;;;;;;9.70;85.70;;;;;;5094606;28;19937;-87
2022/04/13 06:08:55;;;;;;;;;;;9.80;85.70;;;;;;5094751;28;19912;-88
2022/04/13 06:11:21;;;;;;;;;;;10.00;85.30;;;;;;5093292;28;19941;-88
2022/04/13 06:13:46;;;;;;;;;;;10.00;85.00;;;;;;5094037;28;19916;-87
2022/04/13 06:16:12;;;;;;;;;;;10.00;84.90;;;;;;5093566;28;19962;-88
2022/04/13 06:18:38;;;;;;;;;;;10.10;85.20;;;;;;5093972;28;19912;-88
2022/04/13 06:21:03;;;;;;;;;;;10.30;85.30;;;;;;5092324;28;19943;-88
2022/04/13 06:23:29;;;;;;;;;;;10.40;85.00;;;;;;5092833;28;19935;-88
2022/04/13 06:25:54;;;;;;;;;;;10.60;84.20;;;;;;5093894;28;20583;-87
2022/04/13 06:28:20;;;;;;;;;;;10.80;83.30;;;;;;5093612;28;19999;-87
2022/04/13 06:30:46;;;;;;;;;;;10.90;82.80;;;;;;5094125;28;19950;-88
2022/04/13 06:33:11;;;;;;;;;;;11.10;82.20;;;;;;5094018;28;19912;-88
2022/04/13 06:35:37;;;;;;;;;;;11.30;81.80;;;;;;5093594;28;19963;-88
2022/04/13 06:38:02;;;;;;;;;;;11.40;80.00;;;;;;5089583;28;19912;-88
2022/04/13 06:40:28;;;;;;;;;;;11.50;79.70;;;;;;5093412;28;19912;-88
2022/04/13 06:42:55;;;;;;;;;;;11.60;78.90;;;;;;5093691;28;20112;-88
2022/04/13 06:45:20;;;;;;;;;;;11.60;78.70;;;;;;5093706;28;19935;-87
2022/04/13 06:47:48;;;;;;;;;;;11.60;78.50;;;;;;5093821;28;19912;-88
2022/04/13 06:50:14;;;;;;;;;;;11.50;78.30;;;;;;5093917;28;19965;-88
2022/04/13 06:52:40;;;;;;;;;;;11.60;78.70;;;;;;5093890;28;19960;-88
2022/04/13 06:55:06;;;;;;;;;;;11.60;78.50;;;;;;5093740;28;19916;-88
2022/04/13 06:57:37;;;;;;;;;;;11.70;78.60;;;;;;5094083;28;19908;-88
2022/04/13 07:00:12;;;;;;;;;;;11.90;78.60;;;;;;5093405;28;19950;-88
2022/04/13 07:02:38;;;;;;;;;;;12.00;78.30;;;;;;5092500;28;19998;-88
2022/04/13 07:05:04;;;;;;;;;;;12.10;78.10;;;;;;5093319;28;19916;-88
2022/04/13 07:07:30;;;;;;;;;;;12.20;77.90;;;;;;5093757;28;19912;-88
2022/04/13 07:09:55;;;;;;;;;;;12.30;77.70;;;;;;5089896;28;19918;-88
2022/04/13 07:12:21;;;;;;;;;;;12.40;78.10;;;;;;5084618;28;19916;-88
2022/04/13 07:14:47;;;;;;;;;;;12.50;78.50;;;;;;5090879;28;20286;-88
2022/04/13 07:17:13;;;;;;;;;;;12.60;78.20;;;;;;5090046;28;19912;-88
2022/04/13 07:19:38;;;;;;;;;;;12.60;79.00;;;;;;5087954;28;19912;-89
2022/04/13 07:22:05;;;;;;;;;;;12.60;76.50;;;;;;5091945;28;20382;-88
2022/04/13 07:24:30;;;;;;;;;;;12.70;76.40;;;;;;5092084;28;19974;-87
2022/04/13 07:26:56;;;;;;;;;;;12.60;77.50;;;;;;5091141;28;19952;-88
2022/04/13 07:29:21;;;;;;;;;;;12.70;78.90;;;;;;5090767;28;19916;-88
2022/04/13 07:31:47;;;;;;;;;;;12.80;79.20;;;;;;5091220;28;19935;-88
2022/04/13 07:34:13;;;;;;;;;;;12.90;77.90;;;;;;5090968;28;19912;-88
2022/04/13 07:36:38;;;;;;;;;;;13.00;77.40;;;;;;5094140;28;19915;-89
2022/04/13 07:39:04;;;;;;;;;;;13.10;76.40;;;;;;5090851;28;19916;-89
2022/04/13 07:41:30;;;;;;;;;;;13.30;76.80;;;;;;5091993;28;20285;-89
2022/04/13 07:43:57;;;;;;;;;;;13.30;76.80;;;;;;5091439;28;19924;-88
2022/04/13 07:46:22;;;;;;;;;;;13.40;76.90;;;;;;5091894;28;19923;-88
2022/04/13 07:48:48;;;;;;;;;;;13.60;76.60;;;;;;5090938;28;19912;-89
2022/04/13 07:51:13;;;;;;;;;;;13.70;76.30;;;;;;5087750;28;19912;-89
2022/04/13 07:53:39;;;;;;;;;;;13.80;75.90;;;;;;5089982;28;20389;-88
2022/04/13 07:56:05;;;;;;;;;;;13.90;73.70;;;;;;5084789;28;19935;-88
2022/04/13 07:58:30;;;;;;;;;;;14.00;73.30;;;;;;5085129;28;20410;-88
2022/04/13 08:00:56;;;;;;;;;;;14.10;74.00;;;;;;5091658;28;19986;-88
2022/04/13 08:03:21;;;;;;;;;;;14.10;74.50;;;;;;5093701;28;19920;-88
2022/04/13 08:05:47;;;;;;;;;;;14.00;73.00;;;;;;5093956;28;19923;-88
2022/04/13 08:08:12;;;;;;;;;;;13.90;73.80;;;;;;5085522;28;20363;-88
2022/04/13 08:10:38;;;;;;;;;;;13.90;73.80;;;;;;5090135;28;19912;-89
2022/04/13 08:13:03;;;;;;;;;;;14.00;74.50;;;;;;5091605;28;19919;-88
2022/04/13 08:15:29;;;;;;;;;;;14.10;73.90;;;;;;5092032;28;21283;-88
2022/04/13 08:17:55;;;;;;;;;;;14.30;73.40;;;;;;5097315;28;20002;-88
2022/04/13 08:20:20;;;;;;;;;;;14.40;74.00;;;;;;5092169;28;20002;-88
2022/04/13 08:22:46;;;;;;;;;;;14.60;73.60;;;;;;5098427;28;20378;-88
2022/04/13 08:25:12;;;;;;;;;;;14.80;73.40;;;;;;5090915;28;20009;-89
2022/04/13 08:27:38;;;;;;;;;;;14.90;71.40;;;;;;5089422;28;19912;-88
2022/04/13 08:30:04;;;;;;;;;;;15.00;70.80;;;;;;5089197;28;19920;-89
2022/04/13 08:32:29;;;;;;;;;;;15.20;70.70;;;;;;5091614;28;20434;-88
2022/04/13 08:34:55;;;;;;;;;;;15.30;70.20;;;;;;5086599;28;19922;-88
2022/04/13 08:37:22;;;;;;;;;;;15.40;69.50;;;;;;5088267;28;19919;-88
2022/04/13 08:39:48;;;;;;;;;;;15.60;69.20;;;;;;5085450;28;19913;-88
2022/04/13 08:42:14;;;;;;;;;;;15.60;70.20;;;;;;5085975;28;19990;-88
2022/04/13 08:45:00;;;;;;;;;;;15.50;69.00;;;;;;5083833;28;19932;-88
2022/04/13 08:47:28;;;;;;;;;;;15.40;70.10;;;;;;5091261;28;20402;-90
2022/04/13 08:49:54;;;;;;;;;;;15.40;69.30;;;;;;5094561;28;19926;-88
2022/04/13 08:52:23;;;;;;;;;;;15.40;71.70;;;;;;5095269;28;20391;-90
2022/04/13 08:54:49;;;;;;;;;;;15.50;71.00;;;;;;5086105;28;20319;-90
2022/04/13 08:57:16;;;;;;;;;;;15.70;69.20;;;;;;5089141;28;19919;-91
2022/04/13 09:00:02;;;;;;;;;;;15.70;67.90;;;;;;5099679;28;20369;-89
2022/04/13 09:02:46;;;;;;;;;;;15.80;68.30;;;;;;5088202;28;19950;-90
2022/04/13 09:05:14;;;;;;;;;;;15.70;66.70;;;;;;5096005;28;20366;-90
2022/04/13 09:07:41;;;;;;;;;;;15.80;66.90;;;;;;5092581;28;20701;-89
2022/04/13 09:10:10;;;;;;;;;;;15.80;66.40;;;;;;5085433;28;19967;-89
2022/04/13 09:12:38;;;;;;;;;;;15.90;66.10;;;;;;5090576;28;19920;-89
2022/04/13 09:15:05;;;;;;;;;;;16.00;63.80;;;;;;5094016;28;19912;-90
2022/04/13 09:17:30;;;;;;;;;;;16.20;64.20;;;;;;5094845;28;19912;-90
2022/04/13 09:19:57;;;;;;;;;;;16.30;61.40;;;;;;5095171;28;19913;-89
2022/04/13 09:22:23;;;;;;;;;;;16.30;61.30;;;;;;5094266;28;19942;-89
2022/04/13 09:24:50;;;;;;;;;;;16.30;61.40;;;;;;5091901;28;20134;-90
2022/04/13 09:27:16;;;;;;;;;;;16.20;62.40;;;;;;5090935;28;20436;-90
2022/04/13 09:29:41;;;;;;;;;;;16.30;63.60;;;;;;5094862;28;19912;-89
2022/04/13 09:32:07;;;;;;;;;;;16.40;64.20;;;;;;5092521;28;20338;-91
2022/04/13 09:34:33;;;;;;;;;;;16.50;64.70;;;;;;5093046;28;20428;-89
2022/04/13 09:37:00;;;;;;;;;;;16.80;64.80;;;;;;5094070;28;19957;-89
2022/04/13 09:39:26;;;;;;;;;;;17.10;64.00;;;;;;5104525;28;19919;-91
2022/04/13 09:41:51;;;;;;;;;;;17.30;60.50;;;;;;5095578;28;19908;-89
2022/04/13 09:44:20;;;;;;;;;;;17.50;58.70;;;;;;5089426;28;20057;-90
2022/04/13 09:46:45;;;;;;;;;;;17.70;60.30;;;;;;5087349;28;19916;-91
2022/04/13 09:49:15;;;;;;;;;;;17.80;59.70;;;;;;5091029;28;19920;-91
2022/04/13 09:51:41;;;;;;;;;;;18.00;54.20;;;;;;5090540;28;19912;-90
2022/04/13 09:54:08;;;;;;;;;;;18.10;57.20;;;;;;5097371;28;19937;-90
2022/04/13 09:56:35;;;;;;;;;;;18.20;56.60;;;;;;5090253;28;19918;-90
2022/04/13 09:59:00;;;;;;;;;;;18.10;54.90;;;;;;5095180;28;19920;-89
2022/04/13 10:01:26;;;;;;;;;;;17.90;54.80;;;;;;5092453;28;20441;-89
2022/04/13 10:03:55;;;;;;;;;;;17.80;54.80;;;;;;5090202;28;19950;-90
2022/04/13 10:06:28;;;;;;;;;;;17.90;53.90;;;;;;5093215;28;19912;-90
2022/04/13 10:09:20;;;;;;;;;;;18.10;54.70;;;;;;5091256;28;19958;-90
2022/04/13 10:12:03;;;;;;;;;;;18.30;55.10;;;;;;5091187;28;19908;-90
2022/04/13 10:14:29;;;;;;;;;;;18.60;52.90;;;;;;5094578;28;19962;-90
2022/04/13 10:16:57;;;;;;;;;;;18.80;51.10;;;;;;5094792;28;19908;-90
2022/04/13 10:19:23;;;;;;;;;;;18.90;48.20;;;;;;5094876;28;19998;-90
2022/04/13 10:21:49;;;;;;;;;;;18.90;49.30;;;;;;5094608;28;19943;-90
2022/04/13 10:24:21;;;;;;;;;;;19.00;51.70;;;;;;5092970;28;20019;-90
2022/04/13 10:27:06;;;;;;;;;;;19.10;51.50;;;;;;5094636;28;19912;-90
2022/04/13 10:29:32;;;;;;;;;;;19.30;48.40;;;;;;5094869;28;19908;-90
2022/04/13 10:32:01;;;;;;;;;;;19.50;48.20;;;;;;5094333;28;20271;-89
2022/04/13 10:34:33;;;;;;;;;;;19.50;49.80;;;;;;5094160;28;19912;-89
2022/04/13 10:36:59;;;;;;;;;;;19.30;49.70;;;;;;5094343;28;20274;-89
2022/04/13 10:39:24;;;;;;;;;;;19.20;48.90;;;;;;5094337;28;20368;-90
2022/04/13 10:41:50;;;;;;;;;;;19.00;52.40;;;;;;5094229;28;19915;-90
2022/04/13 10:44:20;;;;;;;;;;;19.00;48.70;;;;;;5093716;28;19993;-89
2022/04/13 10:46:48;;;;;;;;;;;19.20;46.70;;;;;;5093498;28;19912;-89
2022/04/13 10:49:16;;;;;;;;;;;19.30;46.60;;;;;;5092506;28;19912;-89
2022/04/13 10:51:43;;;;;;;;;;;19.30;48.00;;;;;;5091885;28;19955;-90
2022/04/13 10:54:09;;;;;;;;;;;19.50;50.40;;;;;;5092820;28;19919;-90
2022/04/13 10:56:37;;;;;;;;;;;19.80;50.80;;;;;;5092331;28;19940;-90
2022/04/13 10:59:03;;;;;;;;;;;20.00;49.80;;;;;;5092534;28;19912;-90
2022/04/13 11:01:30;;;;;;;;;;;20.30;48.90;;;;;;5093467;28;20473;-90
2022/04/13 11:03:56;;;;;;;;;;;20.40;46.70;;;;;;5092828;28;19977;-90
2022/04/13 11:06:22;;;;;;;;;;;20.70;47.10;;;;;;5092183;28;20354;-90
2022/04/13 11:08:51;;;;;;;;;;;20.90;46.30;;;;;;5092715;28;19920;-90
2022/04/13 11:11:20;;;;;;;;;;;21.00;44.40;;;;;;5095753;28;19946;-89
2022/04/13 11:13:50;;;;;;;;;;;20.90;45.10;;;;;;5084855;28;19920;-90
2022/04/13 11:16:15;;;;;;;;;;;20.70;46.80;;;;;;5081966;28;20065;-89
2022/04/13 11:18:42;;;;;;;;;;;20.80;46.90;;;;;;5080161;28;20398;-89
2022/04/13 11:21:08;;;;;;;;;;;20.70;44.60;;;;;;5087866;28;20386;-90
2022/04/13 11:23:42;;;;;;;;;;;20.50;42.80;;;;;;5093087;28;20354;-90
2022/04/13 11:26:08;;;;;;;;;;;20.80;44.10;;;;;;5093157;28;19912;-91
2022/04/13 11:28:34;;;;;;;;;;;20.80;41.50;;;;;;5098731;28;20293;-90
2022/04/13 11:31:03;;;;;;;;;;;21.00;44.70;;;;;;5092589;28;19913;-90
2022/04/13 11:33:47;;;;;;;;;;;21.30;44.30;;;;;;5089233;28;19920;-90
2022/04/13 11:36:13;;;;;;;;;;;21.30;45.30;;;;;;5092198;28;19908;-90
2022/04/13 11:38:45;;;;;;;;;;;21.60;40.90;;;;;;5084154;28;19912;-90
2022/04/13 11:41:11;;;;;;;;;;;21.90;43.30;;;;;;5092774;28;19920;-91
2022/04/13 11:43:39;;;;;;;;;;;22.20;42.60;;;;;;5087394;22;19925;-90
2022/04/13 11:46:04;;;;;;;;;;;22.50;42.40;;;;;;5034102;28;20144;-91
2022/04/13 11:48:33;;;;;;;;;;;22.80;41.40;;;;;;5041855;28;20450;-90
2022/04/13 11:51:18;;;;;;;;;;;23.00;36.40;;;;;;5047627;28;19935;-90
2022/04/13 11:54:16;;;;;;;;;;;23.00;40.00;;;;;;5038551;28;19913;-90
2022/04/13 11:56:41;;;;;;;;;;;22.80;38.70;;;;;;5021304;28;19921;-90
2022/04/13 11:59:07;;;;;;;;;;;22.40;37.90;;;;;;5040152;28;19920;-91
2022/04/13 12:01:35;;;;;;;;;;;22.30;39.60;;;;;;5050247;28;19913;-90
2022/04/13 12:04:04;;;;;;;;;;;22.40;39.60;;;;;;5050909;28;19920;-90
2022/04/13 12:06:31;;;;;;;;;;;22.80;38.80;;;;;;5044134;28;19924;-89
2022/04/13 12:09:01;;;;;;;;;;;23.30;39.20;;;;;;5049351;28;19920;-90
2022/04/13 12:11:44;;;;;;;;;;;23.80;38.10;;;;;;5032063;28;19921;-90
2022/04/13 12:14:10;;;;;;;;;;;24.20;35.30;;;;;;5025261;28;20359;-89
2022/04/13 12:16:39;;;;;;;;;;;24.60;33.80;;;;;;5031312;28;19923;-90
2022/04/13 12:19:09;;;;;;;;;;;24.80;33.70;;;;;;5038934;28;19917;-89
2022/04/13 12:21:36;;;;;;;;;;;24.90;33.50;;;;;;5031475;28;19967;-90
2022/04/13 12:24:03;;;;;;;;;;;24.90;33.30;;;;;;5030353;28;19913;-91
2022/04/13 12:26:29;;;;;;;;;;;24.80;34.50;;;;;;5033682;28;19995;-89
2022/04/13 12:28:56;;;;;;;;;;;24.80;33.90;;;;;;5036116;28;19948;-89
2022/04/13 12:31:21;;;;;;;;;;;25.00;33.70;;;;;;5038423;28;19913;-90
2022/04/13 12:33:47;;;;;;;;;;;25.10;31.60;;;;;;5033344;28;20023;-89
2022/04/13 12:36:14;;;;;;;;;;;23.80;33.30;;;;;;5034134;28;19920;-89
2022/04/13 12:38:42;;;;;;;;;;;23.40;36.10;;;;;;5038647;28;19913;-89
2022/04/13 12:41:12;;;;;;;;;;;23.40;36.10;;;;;;5045834;28;19946;-89
2022/04/13 12:43:39;;;;;;;;;;;23.30;35.60;;;;;;5039351;28;19964;-89
2022/04/13 12:46:08;;;;;;;;;;;23.70;35.30;;;;;;5036800;28;19939;-89
2022/04/13 12:48:33;;;;;;;;;;;24.50;33.20;;;;;;5043280;28;20359;-90
2022/04/13 12:51:00;;;;;;;;;;;25.20;34.30;;;;;;5032326;28;19913;-90
2022/04/13 12:53:26;;;;;;;;;;;25.70;33.00;;;;;;5032611;28;19920;-90
2022/04/13 12:55:56;;;;;;;;;;;26.50;31.50;;;;;;5033211;28;20295;-90
2022/04/13 12:58:22;;;;;;;;;;;27.20;32.20;;;;;;5027286;28;19917;-90
2022/04/13 13:00:48;;;;;;;;;;;27.90;28.70;;;;;;5031037;28;19917;-90
2022/04/13 13:03:14;;;;;;;;;;;28.20;28.80;;;;;;5024847;28;19913;-90
2022/04/13 13:05:40;;;;;;;;;;;28.30;29.80;;;;;;5040954;28;19936;-90
2022/04/13 13:08:05;;;;;;;;;;;28.70;28.00;;;;;;5047393;28;19959;-90
2022/04/13 13:10:32;;;;;;;;;;;29.10;28.10;;;;;;5041005;28;19912;-90
2022/04/13 13:13:13;;;;;;;;;;;28.70;30.50;;;;;;5036773;28;19916;-90
2022/04/13 13:15:39;;;;;;;;;;;28.70;30.00;;;;;;5033402;28;19918;-90
2022/04/13 13:18:07;;;;;;;;;;;27.80;31.00;;;;;;5035126;28;20015;-89
2022/04/13 13:20:33;;;;;;;;;;;26.90;30.70;;;;;;5044823;28;19919;-89
2022/04/13 13:23:05;;;;;;;;;;;26.40;32.00;;;;;;5034464;28;19917;-89
2022/04/13 13:25:38;;;;;;;;;;;26.50;32.70;;;;;;5036549;28;19917;-89
2022/04/13 13:28:04;;;;;;;;;;;26.70;32.80;;;;;;5036832;28;19983;-89
2022/04/13 13:30:36;;;;;;;;;;;26.70;32.20;;;;;;5036227;28;20047;-90
2022/04/13 13:33:02;;;;;;;;;;;26.30;33.10;;;;;;5035619;28;19948;-88
2022/04/13 13:35:29;;;;;;;;;;;26.00;33.70;;;;;;5034957;28;19963;-89
2022/04/13 13:38:03;;;;;;;;;;;25.80;33.30;;;;;;5032231;28;19913;-89
2022/04/13 13:40:29;;;;;;;;;;;25.70;34.30;;;;;;5027528;28;19917;-89
2022/04/13 13:42:54;;;;;;;;;;;26.10;32.80;;;;;;5040252;28;20272;-90
2022/04/13 13:45:20;;;;;;;;;;;25.90;32.40;;;;;;5043919;28;19920;-89
2022/04/13 13:47:45;;;;;;;;;;;25.70;34.70;;;;;;5034531;28;19913;-90
2022/04/13 13:50:11;;;;;;;;;;;26.10;32.70;;;;;;5034104;28;20004;-90
2022/04/13 13:52:37;;;;;;;;;;;26.50;31.10;;;;;;5039680;28;19999;-89
2022/04/13 13:55:03;;;;;;;;;;;26.20;31.80;;;;;;5044361;28;20388;-90
2022/04/13 13:57:29;;;;;;;;;;;26.20;33.10;;;;;;5033489;28;19921;-90
2022/04/13 13:59:54;;;;;;;;;;;26.00;33.70;;;;;;5032785;28;19913;-89
2022/04/13 14:02:20;;;;;;;;;;;25.90;32.90;;;;;;5045282;28;20370;-89
2022/04/13 14:04:45;;;;;;;;;;;25.50;32.00;;;;;;5031213;28;19936;-89
2022/04/13 14:07:11;;;;;;;;;;;25.50;31.90;;;;;;5029512;28;20396;-89
2022/04/13 14:09:37;;;;;;;;;;;25.80;31.30;;;;;;5031726;28;19917;-89
2022/04/13 14:12:02;;;;;;;;;;;26.00;31.80;;;;;;5043351;28;20422;-89
2022/04/13 14:14:28;;;;;;;;;;;26.10;31.80;;;;;;5033499;28;19950;-90
2022/04/13 14:16:54;;;;;;;;;;;26.20;31.80;;;;;;5034807;28;20488;-89
2022/04/13 14:19:20;;;;;;;;;;;26.30;32.20;;;;;;5036160;28;20362;-89